Wetterdaten: Dienstag, 15.09.2015
Datum Zeit Auen-Temp. Temp gefhlt Luftfeuchte Luftdruck Regen Wind Richtung Richtung Taupunkt Windben
15.09.2015 00:00 11,0 C 11,1 C 83 % 1012,9 hPa 0,0 mm 0,8 km/h (0 Bft) NW 315 8,2 C 0,0 km/h (0 Bft)
15.09.2015 00:05 11,0 C 11,0 C 83 % 1012,9 hPa 0,0 mm 0,5 km/h (0 Bft) NW 315 8,2 C 0,0 km/h (0 Bft)
15.09.2015 00:10 10,9 C 11,0 C 82 % 1012,9 hPa 0,0 mm 0,0 km/h (0 Bft) S-SO 157 7,9 C 0,0 km/h (0 Bft)
15.09.2015 00:15 11,0 C 11,0 C 83 % 1013,2 hPa 0,0 mm 0,0 km/h (0 Bft) S-SO 157 8,2 C 0,0 km/h (0 Bft)
15.09.2015 00:20 10,9 C 11,0 C 82 % 1013,2 hPa 0,0 mm 0,3 km/h (0 Bft) S 180 7,9 C 3,4 km/h (1 Bft)
15.09.2015 00:25 11,0 C 11,0 C 83 % 1013,2 hPa 0,0 mm 0,8 km/h (0 Bft) S-SO 157 8,2 C 3,4 km/h (1 Bft)
15.09.2015 00:30 11,0 C 11,1 C 82 % 1013,2 hPa 0,0 mm 1,3 km/h (1 Bft) S-SO 157 8,0 C 3,6 km/h (1 Bft)
15.09.2015 00:35 11,0 C 11,1 C 82 % 1013,3 hPa 0,0 mm 1,0 km/h (0 Bft) SO 135 8,0 C 3,1 km/h (1 Bft)
15.09.2015 00:40 11,0 C 11,2 C 82 % 1013,3 hPa 0,0 mm 1,8 km/h (1 Bft) S-SO 157 8,0 C 6,7 km/h (2 Bft)
15.09.2015 00:45 11,1 C 11,2 C 82 % 1013,3 hPa 0,0 mm 2,3 km/h (1 Bft) SW 225 8,1 C 4,9 km/h (1 Bft)
15.09.2015 00:50 11,1 C 11,2 C 82 % 1013,3 hPa 0,0 mm 0,8 km/h (0 Bft) S 180 8,1 C 0,0 km/h (0 Bft)
15.09.2015 00:55 11,1 C 11,2 C 82 % 1013,6 hPa 0,0 mm 0,5 km/h (0 Bft) S 180 8,1 C 0,0 km/h (0 Bft)
15.09.2015 01:00 11,0 C 11,1 C 81 % 1013,6 hPa 0,0 mm 0,3 km/h (0 Bft) SW 225 7,9 C 0,0 km/h (0 Bft)
15.09.2015 01:05 11,0 C 11,0 C 83 % 1013,6 hPa 0,0 mm 0,0 km/h (0 Bft) S-SO 157 8,2 C 0,0 km/h (0 Bft)
15.09.2015 01:10 10,9 C 11,0 C 82 % 1013,6 hPa 0,0 mm 0,0 km/h (0 Bft) W-SW 247 7,9 C 0,0 km/h (0 Bft)
15.09.2015 01:15 10,9 C 10,9 C 83 % 1013,7 hPa 0,0 mm 0,0 km/h (0 Bft) S-SW 202 8,1 C 0,0 km/h (0 Bft)
15.09.2015 01:20 10,8 C 10,7 C 83 % 1013,7 hPa 0,0 mm 0,0 km/h (0 Bft) SO 135 8,0 C 0,0 km/h (0 Bft)
15.09.2015 01:25 10,7 C 10,6 C 84 % 1013,7 hPa 0,0 mm 0,0 km/h (0 Bft) SO 135 8,1 C 0,0 km/h (0 Bft)
15.09.2015 01:30 10,7 C 10,5 C 84 % 1013,7 hPa 0,0 mm 0,0 km/h (0 Bft) S-SO 157 8,1 C 0,0 km/h (0 Bft)
15.09.2015 01:35 10,7 C 10,5 C 84 % 1013,8 hPa 0,0 mm 0,3 km/h (0 Bft) S 180 8,1 C 3,1 km/h (1 Bft)
15.09.2015 01:40 10,7 C 10,6 C 84 % 1013,8 hPa 0,0 mm 0,8 km/h (0 Bft) NO 45 8,1 C 0,0 km/h (0 Bft)
15.09.2015 01:45 10,7 C 10,6 C 85 % 1013,8 hPa 0,0 mm 1,0 km/h (0 Bft) SO 135 8,3 C 0,0 km/h (0 Bft)
15.09.2015 01:50 10,7 C 10,6 C 85 % 1013,8 hPa 0,0 mm 0,5 km/h (0 Bft) SW 225 8,3 C 3,9 km/h (1 Bft)
15.09.2015 01:55 10,7 C 10,6 C 85 % 1013,8 hPa 0,0 mm 0,8 km/h (0 Bft) S 180 8,3 C 0,0 km/h (0 Bft)
15.09.2015 02:00 10,6 C 10,5 C 85 % 1013,8 hPa 0,0 mm 0,5 km/h (0 Bft) S-SO 157 8,2 C 0,0 km/h (0 Bft)
15.09.2015 02:05 10,6 C 10,5 C 85 % 1013,8 hPa 0,0 mm 0,3 km/h (0 Bft) S-SO 157 8,2 C 0,0 km/h (0 Bft)
15.09.2015 02:10 10,6 C 10,5 C 85 % 1013,8 hPa 0,0 mm 0,0 km/h (0 Bft) S-SO 157 8,2 C 0,0 km/h (0 Bft)
15.09.2015 02:15 10,6 C 10,4 C 85 % 1013,7 hPa 0,0 mm 0,0 km/h (0 Bft) S-SO 157 8,2 C 0,0 km/h (0 Bft)
15.09.2015 02:20 10,6 C 10,3 C 85 % 1013,7 hPa 0,0 mm 0,0 km/h (0 Bft) S-SO 157 8,2 C 0,0 km/h (0 Bft)
15.09.2015 02:25 10,5 C 10,2 C 85 % 1013,7 hPa 0,0 mm 0,8 km/h (0 Bft) SO 135 8,1 C 4,4 km/h (1 Bft)
15.09.2015 02:30 10,5 C 10,3 C 85 % 1013,7 hPa 0,0 mm 1,3 km/h (1 Bft) S-SO 157 8,1 C 0,0 km/h (0 Bft)
15.09.2015 02:35 10,4 C 10,2 C 85 % 1013,6 hPa 0,0 mm 1,0 km/h (0 Bft) S 180 8,0 C 0,0 km/h (0 Bft)
15.09.2015 02:40 10,4 C 10,2 C 85 % 1013,6 hPa 0,0 mm 0,5 km/h (0 Bft) SO 135 8,0 C 0,0 km/h (0 Bft)
15.09.2015 02:45 10,4 C 10,2 C 85 % 1013,6 hPa 0,0 mm 0,5 km/h (0 Bft) SO 135 8,0 C 0,0 km/h (0 Bft)
15.09.2015 02:50 10,2 C 10,1 C 86 % 1013,6 hPa 0,0 mm 0,0 km/h (0 Bft) S 180 8,0 C 0,0 km/h (0 Bft)
15.09.2015 02:55 10,3 C 10,1 C 86 % 1013,6 hPa 0,0 mm 0,0 km/h (0 Bft) SO 135 8,1 C 0,0 km/h (0 Bft)
15.09.2015 03:00 10,3 C 10,1 C 86 % 1013,6 hPa 0,0 mm 0,0 km/h (0 Bft) S-SO 157 8,1 C 0,0 km/h (0 Bft)
15.09.2015 03:05 10,3 C 10,2 C 86 % 1013,6 hPa 0,0 mm 0,0 km/h (0 Bft) S 180 8,1 C 0,0 km/h (0 Bft)
15.09.2015 03:10 10,2 C 10,1 C 86 % 1013,6 hPa 0,0 mm 0,0 km/h (0 Bft) SO 135 8,0 C 0,0 km/h (0 Bft)
15.09.2015 03:15 10,2 C 10,1 C 86 % 1013,5 hPa 0,0 mm 0,0 km/h (0 Bft) SO 135 8,0 C 0,0 km/h (0 Bft)
15.09.2015 03:20 10,2 C 10,1 C 86 % 1013,5 hPa 0,0 mm 0,0 km/h (0 Bft) SO 135 8,0 C 0,0 km/h (0 Bft)
15.09.2015 03:25 10,1 C 10,0 C 86 % 1013,5 hPa 0,0 mm 0,0 km/h (0 Bft) SO 135 7,9 C 0,0 km/h (0 Bft)
15.09.2015 03:30 10,2 C 10,1 C 86 % 1013,5 hPa 0,0 mm 0,0 km/h (0 Bft) N 360 8,0 C 0,0 km/h (0 Bft)
15.09.2015 03:35 10,2 C 10,1 C 86 % 1013,4 hPa 0,0 mm 0,0 km/h (0 Bft) N-NW 337 8,0 C 0,0 km/h (0 Bft)
15.09.2015 03:40 10,2 C 10,2 C 84 % 1013,4 hPa 0,0 mm 0,0 km/h (0 Bft) NO 45 7,6 C 0,0 km/h (0 Bft)
15.09.2015 03:45 10,2 C 10,2 C 84 % 1013,4 hPa 0,0 mm 0,0 km/h (0 Bft) O 90 7,6 C 0,0 km/h (0 Bft)
15.09.2015 03:50 10,2 C 10,2 C 87 % 1013,4 hPa 0,0 mm 0,0 km/h (0 Bft) N-NW 337 8,1 C 0,0 km/h (0 Bft)
15.09.2015 03:55 10,2 C 10,2 C 85 % 1013,1 hPa 0,0 mm 0,0 km/h (0 Bft) NO 45 7,8 C 0,0 km/h (0 Bft)
15.09.2015 04:00 10,2 C 10,2 C 85 % 1013,1 hPa 0,0 mm 0,0 km/h (0 Bft) NO 45 7,8 C 0,0 km/h (0 Bft)
15.09.2015 04:05 10,2 C 10,3 C 85 % 1013,1 hPa 0,0 mm 0,0 km/h (0 Bft) O-NO 67 7,8 C 0,0 km/h (0 Bft)
15.09.2015 04:10 10,2 C 10,3 C 85 % 1013,1 hPa 0,0 mm 0,3 km/h (0 Bft) O-SO 112 7,8 C 3,4 km/h (1 Bft)
15.09.2015 04:15 10,2 C 10,3 C 85 % 1013,1 hPa 0,0 mm 0,3 km/h (0 Bft) O-NO 67 7,8 C 0,0 km/h (0 Bft)
15.09.2015 04:16 10,2 C 10,3 C 85 % 1013,1 hPa 0,0 mm 0,3 km/h (0 Bft) O-NO 67 7,8 C 0,0 km/h (0 Bft)
15.09.2015 04:20 10,2 C 10,3 C 85 % 1013,1 hPa 0,0 mm 0,3 km/h (0 Bft) O-NO 67 7,8 C 0,0 km/h (0 Bft)
15.09.2015 04:25 10,2 C 10,3 C 85 % 1013,1 hPa 0,0 mm 0,0 km/h (0 Bft) O 90 7,8 C 0,0 km/h (0 Bft)
15.09.2015 04:30 10,2 C 10,3 C 85 % 1013,1 hPa 0,0 mm 0,0 km/h (0 Bft) O-SO 112 7,8 C 0,0 km/h (0 Bft)
15.09.2015 04:35 10,2 C 10,3 C 85 % 1012,9 hPa 0,0 mm 0,0 km/h (0 Bft) O 90 7,8 C 0,0 km/h (0 Bft)
15.09.2015 04:40 10,2 C 10,3 C 85 % 1012,9 hPa 0,0 mm 0,0 km/h (0 Bft) O-NO 67 7,8 C 0,0 km/h (0 Bft)
15.09.2015 04:45 10,2 C 10,3 C 85 % 1012,9 hPa 0,0 mm 0,0 km/h (0 Bft) O-NO 67 7,8 C 0,0 km/h (0 Bft)
15.09.2015 04:50 10,2 C 10,2 C 86 % 1012,9 hPa 0,0 mm 0,0 km/h (0 Bft) O-NO 67 8,0 C 0,0 km/h (0 Bft)
15.09.2015 04:55 10,2 C 10,2 C 85 % 1013,1 hPa 0,0 mm 0,0 km/h (0 Bft) O-NO 67 7,8 C 0,0 km/h (0 Bft)
15.09.2015 05:00 10,3 C 10,3 C 85 % 1013,1 hPa 0,0 mm 0,0 km/h (0 Bft) SO 135 7,9 C 0,0 km/h (0 Bft)
15.09.2015 05:05 10,3 C 10,2 C 86 % 1013,1 hPa 0,0 mm 0,3 km/h (0 Bft) O-NO 67 8,1 C 0,0 km/h (0 Bft)
15.09.2015 05:10 10,3 C 10,2 C 86 % 1013,1 hPa 0,0 mm 0,0 km/h (0 Bft) O 90 8,1 C 0,0 km/h (0 Bft)
15.09.2015 05:15 10,3 C 10,2 C 87 % 1012,8 hPa 0,0 mm 0,0 km/h (0 Bft) NO 45 8,2 C 0,0 km/h (0 Bft)
15.09.2015 05:20 10,3 C 10,3 C 85 % 1012,8 hPa 0,0 mm 0,3 km/h (0 Bft) NO 45 7,9 C 0,0 km/h (0 Bft)
15.09.2015 05:25 10,3 C 10,3 C 85 % 1012,8 hPa 0,0 mm 0,5 km/h (0 Bft) O-NO 67 7,9 C 0,0 km/h (0 Bft)
15.09.2015 05:30 10,3 C 10,4 C 85 % 1012,8 hPa 0,0 mm 0,5 km/h (0 Bft) O-NO 67 7,9 C 0,0 km/h (0 Bft)
15.09.2015 05:35 10,3 C 10,3 C 86 % 1012,7 hPa 0,0 mm 0,0 km/h (0 Bft) O 90 8,1 C 0,0 km/h (0 Bft)
15.09.2015 05:40 10,3 C 10,2 C 86 % 1012,7 hPa 0,0 mm 0,0 km/h (0 Bft) O 90 8,1 C 0,0 km/h (0 Bft)
15.09.2015 05:45 10,3 C 10,2 C 86 % 1012,7 hPa 0,0 mm 0,0 km/h (0 Bft) N-NO 22 8,1 C 0,0 km/h (0 Bft)
15.09.2015 05:50 10,3 C 10,2 C 86 % 1012,7 hPa 0,0 mm 0,0 km/h (0 Bft) O-NO 67 8,1 C 0,0 km/h (0 Bft)
15.09.2015 05:55 10,3 C 10,2 C 87 % 1012,4 hPa 0,0 mm 0,0 km/h (0 Bft) N-NO 22 8,2 C 0,0 km/h (0 Bft)
15.09.2015 06:00 10,3 C 10,2 C 87 % 1012,4 hPa 0,0 mm 0,0 km/h (0 Bft) O-SO 112 8,2 C 0,0 km/h (0 Bft)
15.09.2015 06:05 10,3 C 10,2 C 87 % 1012,4 hPa 0,0 mm 0,0 km/h (0 Bft) N-NO 22 8,2 C 0,0 km/h (0 Bft)
15.09.2015 06:10 10,3 C 10,2 C 87 % 1012,4 hPa 0,0 mm 0,0 km/h (0 Bft) O-NO 67 8,2 C 0,0 km/h (0 Bft)
15.09.2015 06:15 10,3 C 10,2 C 87 % 1012,6 hPa 0,0 mm 0,0 km/h (0 Bft) O-NO 67 8,2 C 0,0 km/h (0 Bft)
15.09.2015 06:20 10,2 C 10,1 C 87 % 1012,6 hPa 0,0 mm 0,0 km/h (0 Bft) O-NO 67 8,1 C 0,0 km/h (0 Bft)
15.09.2015 06:25 10,2 C 10,2 C 85 % 1012,6 hPa 0,0 mm 0,0 km/h (0 Bft) O-NO 67 7,8 C 0,0 km/h (0 Bft)
15.09.2015 06:30 10,2 C 10,2 C 85 % 1012,6 hPa 0,0 mm 0,5 km/h (0 Bft) O-SO 112 7,8 C 0,0 km/h (0 Bft)
15.09.2015 06:35 10,2 C 10,2 C 85 % 1012,4 hPa 0,0 mm 0,5 km/h (0 Bft) O-SO 112 7,8 C 0,0 km/h (0 Bft)
15.09.2015 06:40 10,2 C 10,1 C 87 % 1012,4 hPa 0,0 mm 0,3 km/h (0 Bft) O-SO 112 8,1 C 0,0 km/h (0 Bft)
15.09.2015 06:45 10,2 C 10,1 C 87 % 1012,4 hPa 0,0 mm 0,0 km/h (0 Bft) O-SO 112 8,1 C 0,0 km/h (0 Bft)
15.09.2015 06:50 10,1 C 10,1 C 87 % 1012,4 hPa 0,0 mm 0,0 km/h (0 Bft) O-NO 67 8,0 C 0,0 km/h (0 Bft)
15.09.2015 06:55 10,1 C 10,1 C 85 % 1012,1 hPa 0,0 mm 0,0 km/h (0 Bft) O-NO 67 7,7 C 0,0 km/h (0 Bft)
15.09.2015 07:00 10,1 C 10,0 C 87 % 1012,1 hPa 0,0 mm 0,0 km/h (0 Bft) SO 135 8,0 C 0,0 km/h (0 Bft)
15.09.2015 07:05 10,1 C 10,0 C 87 % 1012,1 hPa 0,0 mm 0,0 km/h (0 Bft) SO 135 8,0 C 0,0 km/h (0 Bft)
15.09.2015 07:10 10,2 C 10,1 C 87 % 1012,1 hPa 0,0 mm 0,0 km/h (0 Bft) O-SO 112 8,1 C 0,0 km/h (0 Bft)
15.09.2015 07:15 10,2 C 10,1 C 87 % 1012,3 hPa 0,0 mm 0,0 km/h (0 Bft) O 90 8,1 C 0,0 km/h (0 Bft)
15.09.2015 07:20 10,2 C 10,1 C 87 % 1012,3 hPa 0,0 mm 0,0 km/h (0 Bft) O-SO 112 8,1 C 0,0 km/h (0 Bft)
15.09.2015 07:25 10,2 C 10,2 C 85 % 1012,3 hPa 0,0 mm 0,0 km/h (0 Bft) O-SO 112 7,8 C 0,0 km/h (0 Bft)
15.09.2015 07:30 10,3 C 10,3 C 85 % 1012,3 hPa 0,0 mm 0,0 km/h (0 Bft) O-NO 67 7,9 C 0,0 km/h (0 Bft)
15.09.2015 07:35 10,3 C 10,4 C 85 % 1012,1 hPa 0,0 mm 0,0 km/h (0 Bft) O-NO 67 7,9 C 0,0 km/h (0 Bft)
15.09.2015 07:40 10,4 C 10,5 C 86 % 1012,1 hPa 0,0 mm 0,0 km/h (0 Bft) O-NO 67 8,2 C 0,0 km/h (0 Bft)
15.09.2015 07:45 10,5 C 10,6 C 86 % 1012,1 hPa 0,0 mm 0,0 km/h (0 Bft) O-NO 67 8,3 C 0,0 km/h (0 Bft)
15.09.2015 07:50 10,6 C 10,8 C 86 % 1012,1 hPa 0,0 mm 0,0 km/h (0 Bft) O-NO 67 8,4 C 0,0 km/h (0 Bft)
15.09.2015 07:55 10,7 C 11,0 C 86 % 1012,1 hPa 0,0 mm 0,0 km/h (0 Bft) O-NO 67 8,5 C 0,0 km/h (0 Bft)
15.09.2015 08:00 10,8 C 11,2 C 86 % 1012,1 hPa 0,0 mm 0,0 km/h (0 Bft) NO 45 8,6 C 0,0 km/h (0 Bft)
15.09.2015 08:05 10,9 C 11,5 C 86 % 1012,1 hPa 0,0 mm 0,0 km/h (0 Bft) NO 45 8,7 C 0,0 km/h (0 Bft)
15.09.2015 08:10 11,2 C 12,1 C 85 % 1012,1 hPa 0,0 mm 0,0 km/h (0 Bft) NO 45 8,8 C 0,0 km/h (0 Bft)
15.09.2015 08:15 11,3 C 12,3 C 85 % 1011,9 hPa 0,0 mm 0,0 km/h (0 Bft) O-NO 67 8,9 C 0,0 km/h (0 Bft)
15.09.2015 08:20 11,5 C 12,7 C 85 % 1011,9 hPa 0,0 mm 0,0 km/h (0 Bft) NO 45 9,1 C 0,0 km/h (0 Bft)
15.09.2015 08:25 11,6 C 12,9 C 85 % 1011,9 hPa 0,0 mm 0,0 km/h (0 Bft) O-SO 112 9,2 C 0,0 km/h (0 Bft)
15.09.2015 08:30 11,6 C 13,2 C 85 % 1011,9 hPa 0,0 mm 0,0 km/h (0 Bft) O-NO 67 9,2 C 0,0 km/h (0 Bft)
15.09.2015 08:35 11,6 C 13,2 C 85 % 1012,1 hPa 0,0 mm 0,0 km/h (0 Bft) O 90 9,2 C 0,0 km/h (0 Bft)
15.09.2015 08:40 11,7 C 13,4 C 85 % 1012,1 hPa 0,0 mm 0,0 km/h (0 Bft) O-NO 67 9,3 C 0,0 km/h (0 Bft)
15.09.2015 08:45 11,9 C 13,9 C 85 % 1012,1 hPa 0,0 mm 0,0 km/h (0 Bft) O-SO 112 9,5 C 0,0 km/h (0 Bft)
15.09.2015 08:50 11,9 C 14,6 C 85 % 1012,1 hPa 0,0 mm 0,0 km/h (0 Bft) O-SO 112 9,5 C 0,0 km/h (0 Bft)
15.09.2015 08:55 11,9 C 14,5 C 84 % 1011,7 hPa 0,0 mm 0,3 km/h (0 Bft) O-SO 112 9,3 C 0,0 km/h (0 Bft)
15.09.2015 09:00 12,1 C 14,7 C 84 % 1011,7 hPa 0,0 mm 0,3 km/h (0 Bft) O-SO 112 9,5 C 0,0 km/h (0 Bft)
15.09.2015 09:05 12,3 C 15,4 C 83 % 1011,7 hPa 0,0 mm 0,0 km/h (0 Bft) NO 45 9,5 C 0,0 km/h (0 Bft)
15.09.2015 09:10 12,9 C 17,3 C 83 % 1011,7 hPa 0,0 mm 0,0 km/h (0 Bft) O-SO 112 10,1 C 0,0 km/h (0 Bft)
15.09.2015 09:15 13,0 C 17,8 C 82 % 1011,7 hPa 0,0 mm 0,0 km/h (0 Bft) O-NO 67 10,0 C 0,0 km/h (0 Bft)
15.09.2015 09:20 13,4 C 19,1 C 81 % 1011,7 hPa 0,0 mm 0,0 km/h (0 Bft) O-NO 67 10,2 C 0,0 km/h (0 Bft)
15.09.2015 09:25 14,1 C 20,1 C 80 % 1011,7 hPa 0,0 mm 0,0 km/h (0 Bft) N-NO 22 10,7 C 0,0 km/h (0 Bft)
15.09.2015 09:30 14,5 C 21,2 C 79 % 1011,7 hPa 0,0 mm 0,5 km/h (0 Bft) SO 135 10,9 C 2,8 km/h (1 Bft)
15.09.2015 09:35 14,6 C 21,4 C 78 % 1012,1 hPa 0,0 mm 0,8 km/h (0 Bft) S-SW 202 10,8 C 0,0 km/h (0 Bft)
15.09.2015 09:40 15,2 C 22,6 C 77 % 1012,1 hPa 0,0 mm 0,5 km/h (0 Bft) S-SW 202 11,2 C 0,0 km/h (0 Bft)
15.09.2015 09:45 15,5 C 23,2 C 76 % 1012,1 hPa 0,0 mm 0,0 km/h (0 Bft) N-NO 22 11,3 C 3,6 km/h (1 Bft)
15.09.2015 09:50 15,8 C 22,6 C 74 % 1012,1 hPa 0,0 mm 1,0 km/h (0 Bft) N-NW 337 11,2 C 3,4 km/h (1 Bft)
15.09.2015 09:55 15,8 C 22,2 C 74 % 1012,8 hPa 0,0 mm 2,3 km/h (1 Bft) N-NO 22 11,2 C 2,8 km/h (1 Bft)
15.09.2015 10:00 15,8 C 21,7 C 72 % 1012,8 hPa 0,0 mm 1,8 km/h (1 Bft) N-NO 22 10,8 C 0,0 km/h (0 Bft)
15.09.2015 10:05 15,7 C 21,5 C 70 % 1012,8 hPa 0,0 mm 0,8 km/h (0 Bft) N-NO 22 10,2 C 0,0 km/h (0 Bft)
15.09.2015 10:10 15,2 C 21,0 C 68 % 1012,8 hPa 0,0 mm 0,0 km/h (0 Bft) N-NO 22 9,3 C 0,0 km/h (0 Bft)
15.09.2015 10:15 15,3 C 21,0 C 69 % 1013,1 hPa 0,0 mm 0,0 km/h (0 Bft) N-NO 22 9,6 C 0,0 km/h (0 Bft)
15.09.2015 10:17 15,6 C 21,4 C 69 % 1013,1 hPa 0,0 mm 0,3 km/h (0 Bft) NO 45 9,9 C 0,0 km/h (0 Bft)
15.09.2015 10:20 15,6 C 21,4 C 69 % 1013,1 hPa 0,0 mm 0,3 km/h (0 Bft) NO 45 9,9 C 0,0 km/h (0 Bft)
15.09.2015 10:25 15,8 C 21,4 C 67 % 1013,1 hPa 0,0 mm 0,8 km/h (0 Bft) O-SO 112 9,7 C 0,0 km/h (0 Bft)
15.09.2015 10:30 15,8 C 21,0 C 65 % 1013,1 hPa 0,0 mm 3,1 km/h (1 Bft) N-NO 22 9,2 C 9,8 km/h (2 Bft)
15.09.2015 10:35 16,0 C 20,9 C 64 % 1013,2 hPa 0,0 mm 3,1 km/h (1 Bft) N-NW 337 9,2 C 3,4 km/h (1 Bft)
15.09.2015 10:40 16,6 C 21,8 C 64 % 1013,2 hPa 0,0 mm 2,8 km/h (1 Bft) N-NW 337 9,8 C 11,4 km/h (2 Bft)
15.09.2015 10:45 16,9 C 22,3 C 64 % 1013,2 hPa 0,0 mm 3,4 km/h (1 Bft) O-SO 112 10,0 C 7,5 km/h (2 Bft)
15.09.2015 10:50 16,7 C 22,0 C 61 % 1013,2 hPa 0,0 mm 3,9 km/h (1 Bft) O-NO 67 9,1 C 4,1 km/h (1 Bft)
15.09.2015 10:55 16,4 C 21,5 C 60 % 1013,4 hPa 0,0 mm 3,1 km/h (1 Bft) N-NO 22 8,6 C 4,1 km/h (1 Bft)
15.09.2015 11:00 16,5 C 21,1 C 60 % 1013,4 hPa 0,0 mm 3,1 km/h (1 Bft) O-NO 67 8,7 C 7,5 km/h (2 Bft)
15.09.2015 11:05 16,4 C 20,8 C 59 % 1013,4 hPa 0,0 mm 4,4 km/h (1 Bft) NO 45 8,4 C 7,5 km/h (2 Bft)
15.09.2015 11:10 16,1 C 20,1 C 59 % 1013,4 hPa 0,0 mm 5,7 km/h (1 Bft) N-NO 22 8,1 C 5,4 km/h (1 Bft)
15.09.2015 11:15 16,2 C 19,8 C 60 % 1013,6 hPa 0,0 mm 4,4 km/h (1 Bft) NO 45 8,4 C 4,7 km/h (1 Bft)
15.09.2015 11:20 16,0 C 19,5 C 60 % 1013,6 hPa 0,0 mm 3,6 km/h (1 Bft) N-NW 337 8,2 C 5,2 km/h (1 Bft)
15.09.2015 11:25 16,1 C 19,4 C 60 % 1013,6 hPa 0,0 mm 4,1 km/h (1 Bft) N-NO 22 8,3 C 3,6 km/h (1 Bft)
15.09.2015 11:30 16,2 C 19,5 C 60 % 1013,6 hPa 0,0 mm 4,1 km/h (1 Bft) N-NO 22 8,4 C 11,9 km/h (2 Bft)
15.09.2015 11:35 16,1 C 19,2 C 60 % 1013,6 hPa 0,0 mm 4,1 km/h (1 Bft) NO 45 8,3 C 4,1 km/h (1 Bft)
15.09.2015 11:40 16,0 C 19,0 C 60 % 1013,6 hPa 0,0 mm 5,4 km/h (1 Bft) N-NO 22 8,2 C 12,2 km/h (2 Bft)
15.09.2015 11:45 16,0 C 18,9 C 59 % 1013,6 hPa 0,0 mm 4,7 km/h (1 Bft) NO 45 8,0 C 4,4 km/h (1 Bft)
15.09.2015 11:50 15,9 C 19,0 C 60 % 1013,6 hPa 0,0 mm 5,2 km/h (1 Bft) N-NO 22 8,1 C 8,0 km/h (2 Bft)
15.09.2015 11:55 15,9 C 19,0 C 59 % 1013,4 hPa 0,0 mm 4,9 km/h (1 Bft) O-NO 67 7,9 C 3,1 km/h (1 Bft)
15.09.2015 12:00 16,4 C 20,3 C 59 % 1013,4 hPa 0,0 mm 2,8 km/h (1 Bft) N-NW 337 8,4 C 3,1 km/h (1 Bft)
15.09.2015 12:05 16,4 C 20,5 C 59 % 1013,4 hPa 0,0 mm 2,1 km/h (1 Bft) NO 45 8,4 C 6,0 km/h (2 Bft)
15.09.2015 12:10 16,2 C 19,9 C 59 % 1013,4 hPa 0,0 mm 3,6 km/h (1 Bft) NO 45 8,2 C 0,0 km/h (0 Bft)
15.09.2015 12:15 16,1 C 19,4 C 60 % 1013,3 hPa 0,0 mm 3,6 km/h (1 Bft) N-NW 337 8,3 C 0,0 km/h (0 Bft)
15.09.2015 12:20 16,0 C 18,8 C 59 % 1013,3 hPa 0,0 mm 1,8 km/h (1 Bft) O-NO 67 8,0 C 0,0 km/h (0 Bft)
15.09.2015 12:25 16,1 C 19,0 C 60 % 1013,3 hPa 0,0 mm 1,0 km/h (0 Bft) N-NO 22 8,3 C 4,9 km/h (1 Bft)
15.09.2015 12:30 16,1 C 19,2 C 60 % 1013,3 hPa 0,0 mm 2,3 km/h (1 Bft) N-NW 337 8,3 C 3,9 km/h (1 Bft)
15.09.2015 12:35 16,4 C 19,2 C 60 % 1013,1 hPa 0,0 mm 3,1 km/h (1 Bft) O-SO 112 8,6 C 6,2 km/h (2 Bft)
15.09.2015 12:40 16,9 C 20,6 C 59 % 1013,1 hPa 0,0 mm 4,1 km/h (1 Bft) N-NW 337 8,8 C 8,5 km/h (2 Bft)
15.09.2015 12:45 17,0 C 20,9 C 59 % 1013,1 hPa 0,0 mm 4,9 km/h (1 Bft) NW 315 8,9 C 3,1 km/h (1 Bft)
15.09.2015 12:50 17,5 C 22,0 C 59 % 1013,1 hPa 0,0 mm 2,8 km/h (1 Bft) NO 45 9,4 C 0,0 km/h (0 Bft)
15.09.2015 12:55 17,4 C 22,3 C 59 % 1013,1 hPa 0,0 mm 1,0 km/h (0 Bft) O-NO 67 9,3 C 0,0 km/h (0 Bft)
15.09.2015 13:00 17,2 C 21,6 C 58 % 1013,1 hPa 0,0 mm 1,0 km/h (0 Bft) O-NO 67 8,9 C 2,8 km/h (1 Bft)
15.09.2015 13:05 17,3 C 21,7 C 58 % 1013,1 hPa 0,0 mm 0,5 km/h (0 Bft) O-NO 67 9,0 C 0,0 km/h (0 Bft)
15.09.2015 13:10 17,4 C 21,7 C 58 % 1013,1 hPa 0,0 mm 2,3 km/h (1 Bft) NO 45 9,1 C 3,6 km/h (1 Bft)
15.09.2015 13:15 17,4 C 21,5 C 58 % 1013,4 hPa 0,0 mm 2,6 km/h (1 Bft) O-NO 67 9,1 C 3,9 km/h (1 Bft)
15.09.2015 13:20 16,8 C 20,8 C 57 % 1013,4 hPa 0,0 mm 2,8 km/h (1 Bft) SO 135 8,2 C 2,6 km/h (1 Bft)
15.09.2015 13:25 16,4 C 20,2 C 58 % 1013,4 hPa 0,0 mm 3,6 km/h (1 Bft) SO 135 8,1 C 3,1 km/h (1 Bft)
15.09.2015 13:30 16,4 C 19,8 C 59 % 1013,4 hPa 0,0 mm 2,3 km/h (1 Bft) O-NO 67 8,4 C 4,1 km/h (1 Bft)
15.09.2015 13:35 17,0 C 20,7 C 59 % 1013,2 hPa 0,0 mm 1,0 km/h (0 Bft) SO 135 8,9 C 0,0 km/h (0 Bft)
15.09.2015 13:40 17,4 C 22,1 C 57 % 1013,2 hPa 0,0 mm 2,1 km/h (1 Bft) O 90 8,8 C 0,0 km/h (0 Bft)
15.09.2015 13:45 17,4 C 22,3 C 57 % 1013,2 hPa 0,0 mm 2,1 km/h (1 Bft) NO 45 8,8 C 3,1 km/h (1 Bft)
15.09.2015 13:50 18,0 C 23,3 C 57 % 1013,2 hPa 0,0 mm 2,1 km/h (1 Bft) NW 315 9,4 C 11,4 km/h (2 Bft)
15.09.2015 13:55 17,9 C 23,2 C 57 % 1013,3 hPa 0,0 mm 4,1 km/h (1 Bft) NW 315 9,3 C 8,0 km/h (2 Bft)
15.09.2015 14:00 17,3 C 21,0 C 58 % 1013,3 hPa 0,0 mm 5,7 km/h (1 Bft) W-NW 292 9,0 C 5,7 km/h (1 Bft)
15.09.2015 14:05 17,0 C 20,0 C 58 % 1013,3 hPa 0,0 mm 4,9 km/h (1 Bft) W 270 8,7 C 7,3 km/h (2 Bft)
15.09.2015 14:10 17,0 C 19,4 C 58 % 1013,3 hPa 0,0 mm 4,1 km/h (1 Bft) N-NO 22 8,7 C 3,1 km/h (1 Bft)
15.09.2015 14:15 16,8 C 19,3 C 58 % 1013,1 hPa 0,0 mm 3,6 km/h (1 Bft) NW 315 8,5 C 3,9 km/h (1 Bft)
15.09.2015 14:20 16,6 C 18,7 C 59 % 1013,1 hPa 0,0 mm 3,9 km/h (1 Bft) NW 315 8,6 C 5,4 km/h (1 Bft)
15.09.2015 14:25 16,5 C 18,2 C 59 % 1013,1 hPa 0,0 mm 4,1 km/h (1 Bft) NW 315 8,5 C 0,0 km/h (0 Bft)
15.09.2015 14:30 16,3 C 18,0 C 59 % 1013,1 hPa 0,0 mm 4,1 km/h (1 Bft) NW 315 8,3 C 7,5 km/h (2 Bft)
15.09.2015 14:35 16,3 C 17,7 C 60 % 1012,9 hPa 0,0 mm 3,9 km/h (1 Bft) W 270 8,5 C 4,7 km/h (1 Bft)
15.09.2015 14:40 16,3 C 17,7 C 60 % 1012,9 hPa 0,0 mm 4,1 km/h (1 Bft) NW 315 8,5 C 5,4 km/h (1 Bft)
15.09.2015 14:45 16,3 C 17,6 C 60 % 1012,9 hPa 0,0 mm 3,9 km/h (1 Bft) N-NW 337 8,5 C 8,5 km/h (2 Bft)
15.09.2015 14:50 16,4 C 17,7 C 60 % 1012,9 hPa 0,0 mm 4,4 km/h (1 Bft) W-NW 292 8,6 C 5,7 km/h (1 Bft)
15.09.2015 14:55 16,4 C 17,6 C 60 % 1012,9 hPa 0,0 mm 5,2 km/h (1 Bft) NW 315 8,6 C 6,7 km/h (2 Bft)
15.09.2015 15:00 16,3 C 17,5 C 60 % 1012,9 hPa 0,0 mm 4,9 km/h (1 Bft) W 270 8,5 C 6,7 km/h (2 Bft)
15.09.2015 15:05 16,2 C 17,4 C 60 % 1012,9 hPa 0,0 mm 5,2 km/h (1 Bft) N-NW 337 8,4 C 7,3 km/h (2 Bft)
15.09.2015 15:10 16,1 C 17,0 C 60 % 1012,9 hPa 0,0 mm 5,7 km/h (1 Bft) N-NW 337 8,3 C 2,6 km/h (1 Bft)
15.09.2015 15:15 16,1 C 17,1 C 61 % 1012,9 hPa 0,0 mm 4,1 km/h (1 Bft) N-NW 337 8,6 C 4,7 km/h (1 Bft)
15.09.2015 15:20 16,2 C 17,1 C 61 % 1012,9 hPa 0,0 mm 4,1 km/h (1 Bft) NW 315 8,7 C 3,4 km/h (1 Bft)
15.09.2015 15:25 16,0 C 17,0 C 61 % 1012,9 hPa 0,0 mm 4,1 km/h (1 Bft) W-NW 292 8,5 C 0,0 km/h (0 Bft)
15.09.2015 15:30 15,9 C 16,8 C 63 % 1012,9 hPa 0,0 mm 2,6 km/h (1 Bft) S-SO 157 8,9 C 4,7 km/h (1 Bft)
15.09.2015 15:35 15,7 C 16,6 C 63 % 1012,7 hPa 0,0 mm 3,1 km/h (1 Bft) W-NW 292 8,7 C 8,0 km/h (2 Bft)
15.09.2015 15:40 15,6 C 16,4 C 63 % 1012,7 hPa 0,0 mm 5,4 km/h (1 Bft) W-NW 292 8,6 C 12,9 km/h (3 Bft)
15.09.2015 15:45 15,5 C 16,3 C 64 % 1012,7 hPa 0,0 mm 5,7 km/h (1 Bft) W-NW 292 8,7 C 0,0 km/h (0 Bft)
15.09.2015 15:50 15,4 C 16,0 C 65 % 1012,7 hPa 0,0 mm 4,1 km/h (1 Bft) W-SW 247 8,9 C 7,3 km/h (2 Bft)
15.09.2015 15:55 15,3 C 15,8 C 65 % 1012,8 hPa 0,0 mm 3,1 km/h (1 Bft) W-SW 247 8,8 C 0,0 km/h (0 Bft)
15.09.2015 16:00 15,1 C 15,7 C 65 % 1012,8 hPa 0,0 mm 3,6 km/h (1 Bft) W 270 8,6 C 8,5 km/h (2 Bft)
15.09.2015 16:05 15,1 C 15,6 C 65 % 1012,8 hPa 0,0 mm 2,3 km/h (1 Bft) NW 315 8,6 C 3,4 km/h (1 Bft)
15.09.2015 16:10 15,0 C 15,6 C 66 % 1012,8 hPa 0,0 mm 2,1 km/h (1 Bft) W-NW 292 8,7 C 2,8 km/h (1 Bft)
15.09.2015 16:15 15,0 C 15,5 C 66 % 1012,6 hPa 0,0 mm 1,3 km/h (1 Bft) W-SW 247 8,7 C 0,0 km/h (0 Bft)
15.09.2015 16:18 14,9 C 15,4 C 67 % 1012,6 hPa 0,0 mm 0,5 km/h (0 Bft) NW 315 8,8 C 0,0 km/h (0 Bft)
15.09.2015 16:20 14,9 C 15,4 C 67 % 1012,6 hPa 0,0 mm 0,5 km/h (0 Bft) NW 315 8,8 C 0,0 km/h (0 Bft)
15.09.2015 16:25 14,8 C 15,4 C 67 % 1012,6 hPa 0,0 mm 1,3 km/h (1 Bft) N-NW 337 8,7 C 0,0 km/h (0 Bft)
15.09.2015 16:30 14,7 C 15,3 C 68 % 1012,6 hPa 0,0 mm 3,6 km/h (1 Bft) W 270 8,9 C 2,6 km/h (1 Bft)
15.09.2015 16:35 14,7 C 15,3 C 68 % 1012,6 hPa 0,0 mm 4,4 km/h (1 Bft) W-NW 292 8,9 C 8,5 km/h (2 Bft)
15.09.2015 16:40 14,7 C 15,1 C 68 % 1012,6 hPa 0,0 mm 3,9 km/h (1 Bft) W-SW 247 8,9 C 0,0 km/h (0 Bft)
15.09.2015 16:45 14,6 C 15,1 C 68 % 1012,6 hPa 0,0 mm 2,8 km/h (1 Bft) NW 315 8,8 C 0,0 km/h (0 Bft)
15.09.2015 16:50 14,6 C 15,1 C 68 % 1012,6 hPa 0,0 mm 0,3 km/h (0 Bft) NW 315 8,8 C 0,0 km/h (0 Bft)
15.09.2015 16:55 14,6 C 15,1 C 68 % 1012,6 hPa 0,0 mm 0,0 km/h (0 Bft) N-NW 337 8,8 C 0,0 km/h (0 Bft)
15.09.2015 17:00 14,5 C 15,0 C 68 % 1012,6 hPa 0,0 mm 0,8 km/h (0 Bft) W 270 8,7 C 11,7 km/h (2 Bft)
15.09.2015 17:05 14,4 C 14,9 C 67 % 1012,6 hPa 0,0 mm 2,1 km/h (1 Bft) N-NO 22 8,4 C 7,5 km/h (2 Bft)
15.09.2015 17:10 14,2 C 14,7 C 66 % 1012,6 hPa 0,0 mm 3,1 km/h (1 Bft) W 270 7,9 C 3,4 km/h (1 Bft)
15.09.2015 17:15 14,2 C 14,7 C 66 % 1012,8 hPa 0,0 mm 2,6 km/h (1 Bft) W-NW 292 7,9 C 4,7 km/h (1 Bft)
15.09.2015 17:20 14,2 C 14,7 C 66 % 1012,8 hPa 0,0 mm 2,6 km/h (1 Bft) NW 315 7,9 C 5,2 km/h (1 Bft)
15.09.2015 17:25 14,1 C 14,5 C 65 % 1012,8 hPa 0,0 mm 3,9 km/h (1 Bft) NW 315 7,6 C 4,9 km/h (1 Bft)
15.09.2015 17:30 14,1 C 14,5 C 65 % 1012,8 hPa 0,0 mm 3,4 km/h (1 Bft) NW 315 7,6 C 0,0 km/h (0 Bft)
15.09.2015 17:35 14,1 C 14,4 C 65 % 1012,9 hPa 0,0 mm 2,3 km/h (1 Bft) W 270 7,6 C 2,6 km/h (1 Bft)
15.09.2015 17:40 14,1 C 14,4 C 65 % 1012,9 hPa 0,0 mm 0,5 km/h (0 Bft) W 270 7,6 C 0,0 km/h (0 Bft)
15.09.2015 17:45 14,0 C 14,4 C 66 % 1012,9 hPa 0,0 mm 0,3 km/h (0 Bft) W 270 7,7 C 0,0 km/h (0 Bft)
15.09.2015 17:50 13,9 C 14,3 C 67 % 1012,9 hPa 0,0 mm 0,0 km/h (0 Bft) W 270 7,9 C 0,0 km/h (0 Bft)
15.09.2015 17:55 13,8 C 14,3 C 67 % 1012,8 hPa 0,0 mm 0,0 km/h (0 Bft) W 270 7,8 C 0,0 km/h (0 Bft)
15.09.2015 18:00 13,7 C 14,0 C 67 % 1012,8 hPa 0,0 mm 0,3 km/h (0 Bft) W-SW 247 7,7 C 0,0 km/h (0 Bft)
15.09.2015 18:05 13,6 C 13,9 C 67 % 1012,8 hPa 0,0 mm 0,3 km/h (0 Bft) W-SW 247 7,6 C 0,0 km/h (0 Bft)
15.09.2015 18:10 13,5 C 13,7 C 67 % 1012,8 hPa 0,0 mm 0,3 km/h (0 Bft) W-SW 247 7,5 C 0,0 km/h (0 Bft)
15.09.2015 18:15 13,4 C 13,6 C 68 % 1012,9 hPa 0,0 mm 0,5 km/h (0 Bft) W-SW 247 7,6 C 3,4 km/h (1 Bft)
15.09.2015 18:20 13,2 C 13,5 C 69 % 1012,9 hPa 0,0 mm 0,5 km/h (0 Bft) W-SW 247 7,6 C 0,0 km/h (0 Bft)
15.09.2015 18:25 13,2 C 13,3 C 69 % 1012,9 hPa 0,0 mm 0,8 km/h (0 Bft) W-SW 247 7,6 C 0,0 km/h (0 Bft)
15.09.2015 18:30 13,1 C 13,3 C 69 % 1012,9 hPa 0,0 mm 0,8 km/h (0 Bft) W-SW 247 7,5 C 0,0 km/h (0 Bft)
15.09.2015 18:35 13,0 C 13,2 C 70 % 1012,8 hPa 0,0 mm 0,5 km/h (0 Bft) W-SW 247 7,7 C 2,8 km/h (1 Bft)
15.09.2015 18:40 13,0 C 13,1 C 70 % 1012,8 hPa 0,0 mm 1,0 km/h (0 Bft) SW 225 7,7 C 0,0 km/h (0 Bft)
15.09.2015 18:45 13,1 C 13,2 C 70 % 1012,8 hPa 0,0 mm 1,3 km/h (1 Bft) W-SW 247 7,8 C 0,0 km/h (0 Bft)
15.09.2015 18:50 13,1 C 13,2 C 70 % 1012,8 hPa 0,0 mm 1,3 km/h (1 Bft) W-SW 247 7,8 C 6,0 km/h (2 Bft)
15.09.2015 18:55 13,1 C 13,2 C 70 % 1012,6 hPa 0,0 mm 1,0 km/h (0 Bft) S-SW 202 7,8 C 0,0 km/h (0 Bft)
15.09.2015 19:00 13,0 C 13,1 C 71 % 1012,6 hPa 0,0 mm 0,5 km/h (0 Bft) SW 225 7,9 C 0,0 km/h (0 Bft)
15.09.2015 19:05 13,0 C 13,1 C 71 % 1012,6 hPa 0,0 mm 0,0 km/h (0 Bft) W-SW 247 7,9 C 0,0 km/h (0 Bft)
15.09.2015 19:10 13,0 C 13,0 C 71 % 1012,6 hPa 0,0 mm 0,0 km/h (0 Bft) S-SW 202 7,9 C 0,0 km/h (0 Bft)
15.09.2015 19:15 12,9 C 12,9 C 72 % 1012,5 hPa 0,0 mm 0,0 km/h (0 Bft) SW 225 8,0 C 0,0 km/h (0 Bft)
15.09.2015 19:20 12,9 C 12,9 C 72 % 1012,5 hPa 0,0 mm 0,0 km/h (0 Bft) W-SW 247 8,0 C 0,0 km/h (0 Bft)
15.09.2015 19:25 12,8 C 12,8 C 73 % 1012,5 hPa 0,0 mm 0,0 km/h (0 Bft) W-SW 247 8,1 C 0,0 km/h (0 Bft)
15.09.2015 19:30 12,7 C 12,7 C 74 % 1012,5 hPa 0,0 mm 0,3 km/h (0 Bft) SW 225 8,2 C 3,9 km/h (1 Bft)
15.09.2015 19:35 12,6 C 12,7 C 74 % 1012,4 hPa 0,0 mm 0,5 km/h (0 Bft) S 180 8,1 C 3,1 km/h (1 Bft)
15.09.2015 19:40 12,5 C 12,6 C 75 % 1012,4 hPa 0,0 mm 0,8 km/h (0 Bft) S 180 8,2 C 0,0 km/h (0 Bft)
15.09.2015 19:45 12,4 C 12,4 C 75 % 1012,4 hPa 0,0 mm 0,5 km/h (0 Bft) S 180 8,1 C 0,0 km/h (0 Bft)
15.09.2015 19:50 12,4 C 12,4 C 76 % 1012,4 hPa 0,0 mm 0,3 km/h (0 Bft) S 180 8,3 C 0,0 km/h (0 Bft)
15.09.2015 19:55 12,3 C 12,3 C 76 % 1012,1 hPa 0,0 mm 0,0 km/h (0 Bft) S 180 8,2 C 0,0 km/h (0 Bft)
15.09.2015 20:00 12,2 C 12,3 C 76 % 1012,1 hPa 0,0 mm 0,0 km/h (0 Bft) S 180 8,1 C 0,0 km/h (0 Bft)
15.09.2015 20:05 12,2 C 12,2 C 76 % 1012,1 hPa 0,0 mm 0,0 km/h (0 Bft) S 180 8,1 C 0,0 km/h (0 Bft)
15.09.2015 20:10 12,2 C 12,1 C 78 % 1012,1 hPa 0,0 mm 0,0 km/h (0 Bft) S 180 8,5 C 0,0 km/h (0 Bft)
15.09.2015 20:15 12,2 C 12,1 C 78 % 1011,8 hPa 0,0 mm 0,0 km/h (0 Bft) S 180 8,5 C 0,0 km/h (0 Bft)
15.09.2015 20:20 12,1 C 12,0 C 78 % 1011,8 hPa 0,0 mm 0,0 km/h (0 Bft) S 180 8,4 C 0,0 km/h (0 Bft)
15.09.2015 20:25 12,1 C 12,0 C 78 % 1011,8 hPa 0,0 mm 0,0 km/h (0 Bft) S 180 8,4 C 0,0 km/h (0 Bft)
15.09.2015 20:30 12,0 C 12,0 C 78 % 1011,8 hPa 0,0 mm 0,0 km/h (0 Bft) S 180 8,3 C 0,0 km/h (0 Bft)
15.09.2015 20:35 11,9 C 11,9 C 78 % 1012,0 hPa 0,0 mm 0,0 km/h (0 Bft) S 180 8,2 C 0,0 km/h (0 Bft)
15.09.2015 20:40 11,9 C 11,8 C 78 % 1012,0 hPa 0,0 mm 0,0 km/h (0 Bft) S 180 8,2 C 0,0 km/h (0 Bft)
15.09.2015 20:45 11,8 C 11,7 C 78 % 1012,0 hPa 0,0 mm 0,0 km/h (0 Bft) S 180 8,1 C 0,0 km/h (0 Bft)
15.09.2015 20:50 11,7 C 11,6 C 79 % 1012,0 hPa 0,0 mm 0,0 km/h (0 Bft) S 180 8,2 C 0,0 km/h (0 Bft)
15.09.2015 20:55 11,5 C 11,4 C 79 % 1011,8 hPa 0,0 mm 0,0 km/h (0 Bft) S 180 8,0 C 0,0 km/h (0 Bft)
15.09.2015 21:00 11,4 C 11,3 C 78 % 1011,8 hPa 0,0 mm 0,0 km/h (0 Bft) S 180 7,7 C 0,0 km/h (0 Bft)
15.09.2015 21:05 11,3 C 11,2 C 77 % 1011,8 hPa 0,0 mm 0,0 km/h (0 Bft) S 180 7,4 C 0,0 km/h (0 Bft)
15.09.2015 21:10 11,4 C 11,3 C 77 % 1011,8 hPa 0,0 mm 0,0 km/h (0 Bft) S 180 7,5 C 0,0 km/h (0 Bft)
15.09.2015 21:15 11,3 C 11,2 C 77 % 1011,3 hPa 0,0 mm 0,0 km/h (0 Bft) S 180 7,4 C 0,0 km/h (0 Bft)
15.09.2015 21:20 11,2 C 11,1 C 77 % 1011,3 hPa 0,0 mm 0,0 km/h (0 Bft) S 180 7,3 C 0,0 km/h (0 Bft)
15.09.2015 21:25 11,2 C 11,2 C 77 % 1011,3 hPa 0,0 mm 0,0 km/h (0 Bft) S 180 7,3 C 0,0 km/h (0 Bft)
15.09.2015 21:30 11,1 C 11,1 C 77 % 1011,3 hPa 0,0 mm 0,0 km/h (0 Bft) SO 135 7,2 C 0,0 km/h (0 Bft)
15.09.2015 21:35 11,0 C 11,0 C 77 % 1011,4 hPa 0,0 mm 0,0 km/h (0 Bft) SO 135 7,1 C 0,0 km/h (0 Bft)
15.09.2015 21:40 11,0 C 10,9 C 78 % 1011,4 hPa 0,0 mm 0,0 km/h (0 Bft) SO 135 7,3 C 0,0 km/h (0 Bft)
15.09.2015 21:45 10,9 C 10,8 C 79 % 1011,4 hPa 0,0 mm 0,0 km/h (0 Bft) SO 135 7,4 C 0,0 km/h (0 Bft)
15.09.2015 21:50 10,9 C 10,8 C 78 % 1011,4 hPa 0,0 mm 0,0 km/h (0 Bft) O-SO 112 7,2 C 0,0 km/h (0 Bft)
15.09.2015 21:55 10,9 C 10,8 C 78 % 1011,1 hPa 0,0 mm 0,0 km/h (0 Bft) S 180 7,2 C 0,0 km/h (0 Bft)
15.09.2015 22:00 10,9 C 10,8 C 79 % 1011,1 hPa 0,0 mm 0,0 km/h (0 Bft) O-NO 67 7,4 C 0,0 km/h (0 Bft)
15.09.2015 22:05 10,8 C 10,7 C 79 % 1011,1 hPa 0,0 mm 0,5 km/h (0 Bft) O-SO 112 7,3 C 0,0 km/h (0 Bft)
15.09.2015 22:10 10,7 C 10,6 C 79 % 1011,1 hPa 0,0 mm 0,5 km/h (0 Bft) O 90 7,2 C 3,4 km/h (1 Bft)
15.09.2015 22:15 10,8 C 10,7 C 79 % 1010,6 hPa 0,0 mm 0,3 km/h (0 Bft) O 90 7,3 C 3,4 km/h (1 Bft)
15.09.2015 22:20 10,8 C 10,7 C 78 % 1010,6 hPa 0,0 mm 0,3 km/h (0 Bft) NO 45 7,1 C 0,0 km/h (0 Bft)
15.09.2015 22:25 10,6 C 10,5 C 78 % 1010,6 hPa 0,0 mm 0,3 km/h (0 Bft) W 270 6,9 C 0,0 km/h (0 Bft)
15.09.2015 22:30 10,7 C 10,6 C 78 % 1010,6 hPa 0,0 mm 0,8 km/h (0 Bft) W 270 7,0 C 0,0 km/h (0 Bft)
15.09.2015 22:35 10,7 C 10,6 C 78 % 1010,2 hPa 0,0 mm 0,8 km/h (0 Bft) W-NW 292 7,0 C 0,0 km/h (0 Bft)
15.09.2015 22:40 10,7 C 10,6 C 78 % 1010,2 hPa 0,0 mm 0,0 km/h (0 Bft) NW 315 7,0 C 0,0 km/h (0 Bft)
15.09.2015 22:45 10,6 C 10,6 C 78 % 1010,2 hPa 0,0 mm 0,0 km/h (0 Bft) NW 315 6,9 C 0,0 km/h (0 Bft)
15.09.2015 22:50 10,5 C 10,4 C 78 % 1010,2 hPa 0,0 mm 0,0 km/h (0 Bft) W-SW 247 6,8 C 0,0 km/h (0 Bft)
15.09.2015 22:55 10,4 C 10,3 C 78 % 1010,3 hPa 0,0 mm 0,0 km/h (0 Bft) W-SW 247 6,7 C 0,0 km/h (0 Bft)
15.09.2015 23:00 10,4 C 10,3 C 78 % 1010,3 hPa 0,0 mm 0,0 km/h (0 Bft) W-SW 247 6,7 C 0,0 km/h (0 Bft)
15.09.2015 23:05 10,4 C 10,2 C 79 % 1010,3 hPa 0,0 mm 0,0 km/h (0 Bft) SW 225 6,9 C 0,0 km/h (0 Bft)
15.09.2015 23:10 10,4 C 10,2 C 79 % 1010,3 hPa 0,0 mm 0,0 km/h (0 Bft) SW 225 6,9 C 0,0 km/h (0 Bft)
15.09.2015 23:15 10,3 C 10,1 C 79 % 1009,9 hPa 0,0 mm 0,0 km/h (0 Bft) SW 225 6,8 C 0,0 km/h (0 Bft)
15.09.2015 23:20 10,2 C 10,0 C 79 % 1009,9 hPa 0,0 mm 0,0 km/h (0 Bft) SW 225 6,7 C 0,0 km/h (0 Bft)
15.09.2015 23:25 10,0 C 9,8 C 80 % 1009,9 hPa 0,0 mm 0,0 km/h (0 Bft) W-SW 247 6,7 C 0,0 km/h (0 Bft)
15.09.2015 23:30 10,1 C 9,8 C 80 % 1009,9 hPa 0,0 mm 0,0 km/h (0 Bft) S 180 6,8 C 0,0 km/h (0 Bft)
15.09.2015 23:35 10,1 C 9,8 C 81 % 1009,6 hPa 0,0 mm 0,0 km/h (0 Bft) SO 135 7,0 C 0,0 km/h (0 Bft)
15.09.2015 23:40 10,2 C 10,0 C 79 % 1009,6 hPa 0,0 mm 0,0 km/h (0 Bft) S-SO 157 6,7 C 0,0 km/h (0 Bft)
15.09.2015 23:45 10,5 C 10,2 C 82 % 1009,6 hPa 0,0 mm 0,0 km/h (0 Bft) S-SO 157 7,6 C 0,0 km/h (0 Bft)
15.09.2015 23:50 10,6 C 10,4 C 81 % 1009,6 hPa 0,0 mm 0,5 km/h (0 Bft) SO 135 7,5 C 5,2 km/h (1 Bft)
15.09.2015 23:55 10,7 C 10,5 C 81 % 1009,3 hPa 0,0 mm 0,5 km/h (0 Bft) S-SO 157 7,6 C 0,0 km/h (0 Bft)
_ Min-Zeit 23:25 23:35 13:55 23:55 - 23:45 - - 23:25 23:55
Minimum _ 10,0 C 9,8 C 57 % 1009,3 hPa - 0,0 km/h (0 Bft) - - 6,7 C 0,0 km/h (0 Bft)
_ Max-Zeit 13:50 13:50 07:20 02:10 23:55 15:45 - - 09:45 15:40
Maximum _ 18,0 C 23,3 C 87 % 1013,8 hPa 0,0 mm 5,7 km/h
W-NW (1 Bft)
- - 11,3 C 12,9 km/h
W-NW (3 Bft)
Durchschnitt _ 12,8 C 13,9 C 75 % 1012,6 hPa #0,0 mm 1,2 km/h (1 Bft) NW - 8,3 C 1,6 km/h (1 Bft)